Time;durP1;ratioP1;P1;durP2;ratioP2;P2;SDS_P1;SDS_P2;PMS_P1;PMS_P2;Temp;Humidity;BMP_temperature;BMP_pressure;BME280_temperature;BME280_humidity;BME280_pressure;Samples;Min_cycle;Max_cycle;Signal;HPM_P1;HPM_P2
2021/12/04 00:01:11;;;;;;;21.85;12.57;;;;;;;8.95;78.34;98953.28;4895297;29;20747;-54
2021/12/04 00:03:38;;;;;;;23.95;12.70;;;;;;;9.26;77.64;98970.25;4895192;29;20168;-54
2021/12/04 00:06:09;;;;;;;21.77;12.40;;;;;;;9.10;78.58;98966.25;4895266;29;20032;-51
2021/12/04 00:08:35;;;;;;;25.27;13.93;;;;;;;9.55;77.46;98969.63;4895495;29;20032;-53
2021/12/04 00:11:02;;;;;;;41.80;20.77;;;;;;;9.51;77.69;98980.91;4895178;29;20100;-53
2021/12/04 00:13:28;;;;;;;32.50;19.38;;;;;;;9.35;77.45;98987.56;4895016;29;20061;-54
2021/12/04 00:15:53;;;;;;;24.50;14.82;;;;;;;9.09;77.59;98988.53;4895125;29;20178;-52
2021/12/04 00:18:19;;;;;;;22.67;13.13;;;;;;;8.91;79.30;98992.69;4895076;29;20040;-54
2021/12/04 00:20:44;;;;;;;19.02;12.05;;;;;;;8.79;79.73;98989.03;4895132;29;20116;-52
2021/12/04 00:23:10;;;;;;;21.63;11.98;;;;;;;9.00;80.70;98988.78;4895273;29;20028;-56
2021/12/04 00:25:37;;;;;;;18.00;11.20;;;;;;;9.01;80.83;98978.97;4878030;29;20371;-53
2021/12/04 00:28:03;;;;;;;18.63;10.82;;;;;;;9.38;77.74;98998.53;4877846;29;20032;-52
2021/12/04 00:30:29;;;;;;;17.65;10.60;;;;;;;9.25;77.01;98988.00;4895169;29;20087;-53
2021/12/04 00:32:58;;;;;;;18.48;10.13;;;;;;;8.97;78.14;98991.03;4895122;29;20040;-53
2021/12/04 00:51:16;;;;;;;13.32;8.60;;;;;;;8.74;78.59;98973.78;4895186;29;20449;-52
2021/12/04 00:53:42;;;;;;;15.13;8.35;;;;;;;8.90;78.06;98993.69;4894703;29;20037;-54
2021/12/04 00:56:07;;;;;;;14.50;9.23;;;;;;;9.55;76.62;98987.41;4894686;29;20405;-53
2021/12/04 00:58:32;;;;;;;16.42;9.18;;;;;;;9.72;75.02;98993.81;4894840;29;20060;-53
2021/12/04 01:00:58;;;;;;;14.93;8.63;;;;;;;9.42;75.73;98990.97;4894795;29;20084;-50
2021/12/04 01:03:24;;;;;;;15.45;8.90;;;;;;;9.33;75.46;98997.59;4877647;29;20020;-51
2021/12/04 01:05:49;;;;;;;12.27;8.05;;;;;;;8.90;77.05;98988.38;4894760;29;20327;-51
2021/12/04 01:08:15;;;;;;;12.93;8.85;;;;;;;8.88;77.54;98990.44;4862385;29;20052;-53
2021/12/04 01:10:40;;;;;;;15.27;8.70;;;;;;;8.79;78.96;98999.66;4894688;29;20092;-52
2021/12/04 01:13:10;;;;;;;15.02;8.27;;;;;;;9.36;76.39;98992.63;4894584;29;20450;-52
2021/12/04 01:15:38;;;;;;;15.35;8.27;;;;;;;9.02;76.98;98983.22;4894597;29;20524;-49
2021/12/04 01:18:03;;;;;;;11.18;7.70;;;;;;;9.20;77.00;98987.84;4894782;29;20109;-52
2021/12/04 01:20:28;;;;;;;11.43;7.43;;;;;;;9.10;77.03;98988.31;4894181;29;20396;-54
2021/12/04 01:22:54;;;;;;;11.30;7.60;;;;;;;9.08;76.57;98989.53;4894058;29;20032;-52
2021/12/04 01:25:19;;;;;;;14.02;7.22;;;;;;;8.90;77.34;98977.78;4894083;29;20029;-52
2021/12/04 01:27:46;;;;;;;12.68;7.38;;;;;;;9.06;76.59;98962.38;4894202;29;20053;-53
2021/12/04 01:30:11;;;;;;;10.48;7.10;;;;;;;8.91;77.05;98967.97;4893954;29;20504;-53
2021/12/04 01:32:37;;;;;;;10.57;6.95;;;;;;;9.06;76.17;98965.03;4893960;29;20028;-54
2021/12/04 01:35:02;;;;;;;12.13;7.57;;;;;;;9.27;75.54;98958.59;4894114;29;20452;-53
2021/12/04 01:37:28;;;;;;;11.20;6.93;;;;;;;9.23;75.41;98954.75;4892288;29;20033;-53
2021/12/04 01:39:53;;;;;;;11.45;7.10;;;;;;;9.23;75.81;98960.03;4877019;29;20032;-54
2021/12/04 01:42:20;;;;;;;12.82;7.07;;;;;;;9.19;75.85;98952.53;4893510;29;20478;-52
2021/12/04 01:44:47;;;;;;;11.82;6.32;;;;;;;9.25;75.26;98944.72;4893867;29;20055;-53
2021/12/04 01:47:14;;;;;;;13.00;6.38;;;;;;;9.31;74.80;98943.84;4893375;29;20702;-54
2021/12/04 01:49:40;;;;;;;11.30;6.88;;;;;;;9.06;75.27;98944.63;4893673;29;20031;-53
2021/12/04 01:52:06;;;;;;;10.07;6.07;;;;;;;9.03;75.24;98952.22;4894044;29;20017;-56
2021/12/04 01:54:32;;;;;;;10.82;5.70;;;;;;;8.70;77.02;98942.56;4893883;29;20032;-54
2021/12/04 01:56:57;;;;;;;8.10;5.47;;;;;;;9.36;74.32;98947.50;4893720;29;20020;-53
2021/12/04 01:59:23;;;;;;;8.43;5.30;;;;;;;9.48;73.48;98944.97;4893729;29;20465;-53
2021/12/04 02:01:48;;;;;;;7.53;5.15;;;;;;;9.27;74.01;98951.47;4893898;29;20130;-52
2021/12/04 02:04:14;;;;;;;12.02;5.25;;;;;;;9.18;74.02;98952.75;4893783;29;20039;-52
2021/12/04 02:06:39;;;;;;;7.75;4.93;;;;;;;8.91;75.10;98942.28;4894016;29;20032;-54
2021/12/04 02:09:05;;;;;;;9.63;5.15;;;;;;;9.14;74.30;98949.69;4877078;29;20036;-54
2021/12/04 02:11:30;;;;;;;9.50;5.22;;;;;;;9.30;74.17;98937.75;4894599;29;20063;-51
2021/12/04 02:13:56;;;;;;;8.77;5.43;;;;;;;9.91;71.69;98933.56;4897408;29;20385;-51
2021/12/04 02:16:22;;;;;;;8.50;5.30;;;;;;;9.08;74.28;98907.25;4898068;29;20028;-52
2021/12/04 02:18:48;;;;;;;8.88;5.10;;;;;;;9.22;74.33;98914.13;4898205;29;20028;-49
2021/12/04 02:21:14;;;;;;;9.77;5.90;;;;;;;9.17;74.80;98917.41;4881322;29;20144;-53
2021/12/04 02:23:39;;;;;;;9.55;5.30;;;;;;;9.23;74.32;98918.38;4898254;29;20466;-54
2021/12/04 02:26:05;;;;;;;9.20;5.75;;;;;;;9.17;74.84;98916.59;4898341;29;20025;-53
2021/12/04 02:28:30;;;;;;;9.00;5.40;;;;;;;9.26;74.70;98906.53;4898244;29;20032;-51
2021/12/04 02:30:56;;;;;;;9.45;5.53;;;;;;;9.27;74.49;98898.34;4898248;29;20032;-52
2021/12/04 02:33:21;;;;;;;8.00;5.32;;;;;;;9.11;74.92;98898.88;4898315;29;20354;-51
2021/12/04 02:35:51;;;;;;;7.00;4.88;;;;;;;9.16;74.97;98901.72;4897823;29;20152;-52
2021/12/04 02:38:17;;;;;;;7.13;5.05;;;;;;;9.13;74.40;98891.50;4897708;29;20032;-54
2021/12/04 02:40:44;;;;;;;7.47;4.68;;;;;;;9.28;73.58;98884.03;4897966;29;20497;-53
2021/12/04 02:43:10;;;;;;;6.85;4.70;;;;;;;9.09;74.25;98880.50;4897861;29;20035;-53
2021/12/04 02:45:35;;;;;;;7.25;4.95;;;;;;;9.29;73.18;98868.91;4897664;29;20036;-51
2021/12/04 02:48:01;;;;;;;8.93;4.60;;;;;;;9.17;73.69;98879.44;4897866;29;20063;-52
2021/12/04 02:50:26;;;;;;;6.20;3.97;;;;;;;8.83;74.04;98864.75;4897880;29;20024;-49
2021/12/04 02:52:52;;;;;;;6.43;4.07;;;;;;;8.54;75.50;98866.94;4897675;29;20024;-51
2021/12/04 02:55:18;;;;;;;6.03;4.10;;;;;;;8.65;74.64;98876.09;4897706;29;20139;-49
2021/12/04 02:57:44;;;;;;;7.30;4.10;;;;;;;9.30;72.09;98868.69;4880841;29;20029;-50
2021/12/04 03:00:16;;;;;;;6.38;3.90;;;;;;;9.25;72.06;98884.47;4897463;29;20039;-50
2021/12/04 03:02:42;;;;;;;7.07;4.20;;;;;;;9.19;72.25;98907.41;4896974;29;20029;-53
2021/12/04 03:05:09;;;;;;;6.03;4.32;;;;;;;9.06;72.84;98931.34;4897401;29;20028;-51
2021/12/04 03:07:35;;;;;;;6.75;3.92;;;;;;;8.69;74.23;98919.72;4897014;29;20125;-51
2021/12/04 03:10:00;;;;;;;6.80;4.13;;;;;;;8.38;75.15;98913.28;4896881;29;20046;-50
2021/12/04 03:12:26;;;;;;;5.00;3.85;;;;;;;8.67;74.14;98924.44;4892190;29;20111;-53
2021/12/04 03:14:52;;;;;;;5.40;3.70;;;;;;;8.69;74.69;98914.41;4871355;29;20041;-52
2021/12/04 03:17:20;;;;;;;6.90;3.92;;;;;;;9.10;72.42;98918.47;4869438;29;20026;-52
2021/12/04 03:19:45;;;;;;;5.47;3.50;;;;;;;9.16;72.06;98912.31;4887181;29;20020;-52
2021/12/04 03:22:11;;;;;;;5.55;3.88;;;;;;;9.07;72.54;98919.72;4887645;29;20021;-52
2021/12/04 03:24:40;;;;;;;6.65;4.05;;;;;;;8.66;73.52;98925.44;4884890;29;20052;-52
2021/12/04 03:27:06;;;;;;;7.13;4.13;;;;;;;8.74;73.87;98927.88;4888437;29;20039;-52
2021/12/04 03:29:34;;;;;;;5.78;4.10;;;;;;;8.68;73.56;98931.34;4886381;29;20497;-51
2021/12/04 03:40:06;;;;;;;6.18;3.97;;;;;;;8.64;73.62;98932.78;4887333;29;20031;-51
2021/12/04 03:42:32;;;;;;;11.40;4.47;;;;;;;8.56;74.36;98939.16;4894957;29;20047;-52
2021/12/04 03:44:58;;;;;;;7.10;4.30;;;;;;;8.51;75.17;98931.00;4896208;29;20108;-51
2021/12/04 03:47:23;;;;;;;8.73;4.18;;;;;;;8.74;73.98;98941.13;4896321;29;20060;-52
2021/12/04 03:49:49;;;;;;;6.82;4.15;;;;;;;8.78;74.83;98944.97;4896018;29;20494;-51
2021/12/04 03:52:14;;;;;;;5.90;4.10;;;;;;;9.37;71.79;98938.50;4895601;29;20039;-53
2021/12/04 03:54:40;;;;;;;7.55;4.20;;;;;;;9.09;72.12;98938.09;4896653;29;20020;-52
2021/12/04 03:57:06;;;;;;;6.03;4.00;;;;;;;8.57;73.84;98933.63;4896324;29;20135;-51
2021/12/04 03:59:32;;;;;;;6.80;4.50;;;;;;;8.57;73.32;98931.00;4896261;29;20029;-54
2021/12/04 04:01:57;;;;;;;5.82;4.25;;;;;;;8.53;74.24;98928.94;4896695;29;20024;-53
2021/12/04 04:04:23;;;;;;;6.13;4.30;;;;;;;8.38;74.30;98929.19;4896307;29;20382;-52
2021/12/04 04:06:48;;;;;;;5.78;4.18;;;;;;;8.53;74.02;98921.81;4895548;29;20033;-51
2021/12/04 04:09:14;;;;;;;7.47;4.10;;;;;;;9.15;71.81;98937.22;4879279;29;20044;-51
2021/12/04 04:11:39;;;;;;;5.38;3.92;;;;;;;9.09;73.04;98938.09;4895755;29;20047;-52
2021/12/04 04:14:05;;;;;;;5.70;3.97;;;;;;;8.59;73.45;98941.38;4896178;29;20043;-53
2021/12/04 04:16:31;;;;;;;5.70;4.18;;;;;;;8.31;74.27;98936.34;4896360;29;20028;-52
2021/12/04 04:18:56;;;;;;;6.78;4.32;;;;;;;8.47;74.12;98932.44;4896403;29;20100;-53
2021/12/04 04:21:22;;;;;;;5.68;4.18;;;;;;;8.52;73.56;98917.53;4896025;29;20043;-51
2021/12/04 04:23:47;;;;;;;5.28;3.78;;;;;;;8.38;74.36;98932.66;4896351;29;20113;-52
2021/12/04 04:26:13;;;;;;;6.20;4.03;;;;;;;8.51;74.37;98921.22;4880599;29;20348;-51
2021/12/04 04:28:38;;;;;;;7.07;4.30;;;;;;;8.86;72.36;98926.16;4891727;29;20120;-53
2021/12/04 04:31:05;;;;;;;6.28;4.43;;;;;;;8.91;72.06;98934.31;4895814;29;20043;-52
2021/12/04 04:33:35;;;;;;;6.75;4.18;;;;;;;8.75;72.01;98940.09;4895908;29;20036;-51
2021/12/04 04:36:12;;;;;;;6.85;4.30;;;;;;;8.58;71.94;98932.59;4895672;29;20131;-52
2021/12/04 04:39:10;;;;;;;6.95;4.40;;;;;;;8.44;72.63;98944.28;4895692;29;20120;-51
2021/12/04 05:11:16;;;;;;;5.15;3.63;;;;;;;8.48;71.74;98945.50;4880464;29;20123;-50
2021/12/04 05:13:42;;;;;;;5.95;4.00;;;;;;;8.32;72.45;98946.75;4895072;29;20041;-50
2021/12/04 05:16:12;;;;;;;6.43;3.72;;;;;;;8.23;72.15;98924.13;4894769;29;20461;-50
2021/12/04 05:18:42;;;;;;;6.93;4.35;;;;;;;8.37;72.13;98948.75;4893430;29;20056;-50
2021/12/04 05:21:08;;;;;;;5.93;4.20;;;;;;;8.19;72.39;98946.78;4894841;29;20032;-52
2021/12/04 05:23:40;;;;;;;5.45;3.85;;;;;;;7.81;72.91;98958.03;4894708;29;20029;-50
2021/12/04 05:26:06;;;;;;;6.07;4.20;;;;;;;7.68;75.34;98961.50;4894487;29;20432;-51
2021/12/04 05:28:32;;;;;;;5.60;4.10;;;;;;;8.27;72.73;98956.34;4894689;29;20033;-50
2021/12/04 05:30:58;;;;;;;7.15;3.97;;;;;;;8.52;72.16;98956.50;4894786;29;20075;-52
2021/12/04 05:33:24;;;;;;;5.88;3.88;;;;;;;8.01;73.23;98955.34;4894719;29;20108;-53
2021/12/04 05:35:49;;;;;;;6.70;4.18;;;;;;;8.02;73.59;98964.94;4895011;29;20498;-49
2021/12/04 05:38:16;;;;;;;5.90;4.03;;;;;;;8.04;73.50;98957.59;4894844;29;20071;-48
2021/12/04 05:40:42;;;;;;;6.75;4.47;;;;;;;8.11;73.09;98931.91;4895019;29;20041;-50
2021/12/04 05:43:07;;;;;;;7.50;4.45;;;;;;;8.08;73.71;98966.78;4895056;29;20100;-51
2021/12/04 05:45:39;;;;;;;7.00;4.38;;;;;;;8.21;72.90;98971.25;4878391;29;20040;-50
2021/12/04 05:56:29;;;;;;;20.08;10.73;;;;;;;8.03;72.86;98954.16;4880010;29;20117;-51
2021/12/04 05:58:54;;;;;;;5.65;3.85;;;;;;;8.13;72.50;98972.28;4898446;29;20029;-51
2021/12/04 06:01:20;;;;;;;12.43;7.43;;;;;;;8.19;72.29;98966.13;4898090;29;20028;-51
2021/12/04 06:03:46;;;;;;;7.63;4.55;;;;;;;8.08;71.91;98961.47;4898445;29;20108;-51
2021/12/04 06:06:12;;;;;;;6.72;4.28;;;;;;;8.07;72.29;98969.63;4898701;29;20039;-50
2021/12/04 06:08:38;;;;;;;6.65;4.20;;;;;;;8.23;72.08;98967.34;4898535;29;20037;-50
2021/12/04 06:11:03;;;;;;;8.32;4.10;;;;;;;8.59;69.65;98962.59;4898752;29;20450;-52
2021/12/04 06:13:29;;;;;;;5.75;4.00;;;;;;;8.14;71.30;98970.44;4881542;29;20121;-51
2021/12/04 06:15:54;;;;;;;5.30;3.85;;;;;;;7.86;71.79;98981.25;4898555;29;20040;-53
2021/12/04 06:18:21;;;;;;;5.63;4.00;;;;;;;8.00;72.35;98978.41;4898164;29;20036;-50
2021/12/04 06:23:32;;;;;;;5.80;3.72;;;;;;;8.27;70.77;98973.06;4897880;29;20119;-50
2021/12/04 06:25:57;;;;;;;5.63;3.88;;;;;;;8.30;70.87;98990.38;4897817;29;20516;-52
2021/12/04 06:28:23;;;;;;;5.15;3.53;;;;;;;8.30;70.59;98980.59;4897319;29;20036;-51
2021/12/04 06:30:49;;;;;;;9.02;4.82;;;;;;;8.38;70.79;98988.31;4897904;29;20040;-50
2021/12/04 06:33:17;;;;;;;7.70;4.53;;;;;;;8.66;69.54;98989.09;4897446;29;20497;-51
2021/12/04 06:35:43;;;;;;;5.55;3.80;;;;;;;8.47;69.56;98988.94;4897319;29;20056;-49
2021/12/04 06:38:10;;;;;;;5.43;4.10;;;;;;;8.35;69.99;98995.88;4880381;29;20167;-50
2021/12/04 06:40:36;;;;;;;5.35;3.97;;;;;;;8.52;69.93;99012.19;4897476;29;20024;-52
2021/12/04 06:43:02;;;;;;;5.95;4.40;;;;;;;8.34;70.50;99023.41;4897271;29;20024;-52
2021/12/04 06:45:29;;;;;;;7.00;4.10;;;;;;;7.89;71.24;99039.13;4897203;29;20069;-52
2021/12/04 06:48:01;;;;;;;6.07;3.70;;;;;;;7.92;71.63;99028.13;4880628;29;20048;-49
2021/12/04 06:55:42;;;;;;;6.30;4.28;;;;;;;8.60;71.07;99031.38;4897195;29;20040;-52
2021/12/04 06:58:08;;;;;;;7.78;4.53;;;;;;;8.27;72.62;99036.69;4897102;29;20108;-54
2021/12/04 07:00:34;;;;;;;8.43;5.63;;;;;;;8.31;73.51;99042.38;4897387;29;20041;-52
2021/12/04 07:02:59;;;;;;;8.48;4.90;;;;;;;7.94;76.23;99045.47;4897212;29;20462;-52
2021/12/04 07:05:25;;;;;;;6.95;4.60;;;;;;;7.86;77.22;99050.94;4897101;29;20489;-55
2021/12/04 07:07:50;;;;;;;7.00;5.10;;;;;;;8.08;76.27;99048.91;4893679;29;20036;-52
2021/12/04 07:10:16;;;;;;;6.80;4.90;;;;;;;8.09;76.63;99058.50;4894347;29;20032;-54
2021/12/04 07:12:41;;;;;;;7.85;4.93;;;;;;;7.72;77.88;99041.34;4897034;29;20029;-55
2021/12/04 07:15:08;;;;;;;6.82;4.53;;;;;;;7.66;77.31;99072.09;4897463;29;20021;-54
2021/12/04 07:17:35;;;;;;;6.32;4.65;;;;;;;7.47;78.62;99075.53;4896423;29;20087;-55
2021/12/04 07:20:05;;;;;;;11.40;5.78;;;;;;;7.38;78.59;99070.41;4896476;29;20033;-53
2021/12/04 07:22:30;;;;;;;8.93;5.45;;;;;;;7.82;77.00;99079.69;4896455;29;20036;-52
2021/12/04 07:24:56;;;;;;;7.55;5.00;;;;;;;8.08;75.22;99079.91;4896422;29;20504;-53
2021/12/04 07:27:22;;;;;;;7.50;4.63;;;;;;;7.91;75.67;99074.19;4896703;29;20017;-53
2021/12/04 07:29:47;;;;;;;6.93;4.93;;;;;;;8.14;74.35;99076.44;4896247;29;20390;-52
2021/12/04 07:32:12;;;;;;;7.90;4.70;;;;;;;7.81;74.27;99066.63;4896523;29;20540;-54
2021/12/04 07:34:38;;;;;;;10.30;5.18;;;;;;;7.81;74.27;99069.28;4896162;29;20053;-55
2021/12/04 07:37:03;;;;;;;8.63;5.50;;;;;;;7.80;74.23;99036.66;4896550;29;20029;-53
2021/12/04 07:39:29;;;;;;;7.40;4.93;;;;;;;8.03;73.77;99069.91;4896173;29;20408;-53
2021/12/04 07:41:55;;;;;;;7.03;4.80;;;;;;;8.14;73.46;99074.59;4896473;29;20404;-55
2021/12/04 07:44:20;;;;;;;8.90;5.55;;;;;;;8.15;74.48;99078.91;4896718;29;20036;-57
2021/12/04 07:46:46;;;;;;;17.23;10.55;;;;;;;8.51;74.81;99076.84;4891088;29;20033;-55
2021/12/04 07:49:11;;;;;;;45.88;22.73;;;;;;;8.54;78.20;99074.59;4886019;29;20028;-54
2021/12/04 07:51:37;;;;;;;12.13;4.80;;;;;;;8.31;73.66;99079.50;4883751;29;20135;-41
2021/12/04 07:54:03;;;;;;;9.52;4.90;;;;;;;8.23;73.82;99083.16;4886710;29;20029;-41
2021/12/04 07:56:28;;;;;;;9.32;5.53;;;;;;;8.41;73.42;99086.06;4889613;29;20084;-39
2021/12/04 07:58:54;;;;;;;7.82;5.18;;;;;;;8.27;74.23;99088.88;4883109;29;20028;-41
2021/12/04 08:01:20;;;;;;;8.15;5.05;;;;;;;8.21;73.83;99101.13;4887514;29;20378;-41
2021/12/04 08:03:45;;;;;;;8.98;5.30;;;;;;;8.39;73.93;99097.84;4879815;29;20058;-42
2021/12/04 08:06:11;;;;;;;9.43;5.43;;;;;;;8.20;73.83;99110.06;4877215;29;20553;-40
2021/12/04 08:08:36;;;;;;;7.93;5.50;;;;;;;7.94;75.35;99116.16;4876851;29;20085;-40
2021/12/04 08:11:03;;;;;;;7.15;5.22;;;;;;;7.95;75.06;99115.97;4876228;29;20033;-40
2021/12/04 08:13:29;;;;;;;8.35;5.32;;;;;;;8.40;74.01;99113.56;4876929;29;20059;-40
2021/12/04 08:15:54;;;;;;;9.32;5.40;;;;;;;8.78;72.41;99117.44;4876970;29;20474;-38
2021/12/04 08:18:20;;;;;;;9.35;5.63;;;;;;;8.50;72.28;99126.41;4877054;29;20123;-40
2021/12/04 08:20:45;;;;;;;9.80;5.55;;;;;;;8.74;71.30;99129.47;4876852;29;20396;-40
2021/12/04 08:23:11;;;;;;;9.27;5.30;;;;;;;8.73;71.09;99126.00;4876521;29;20059;-40
2021/12/04 08:25:36;;;;;;;6.70;4.72;;;;;;;8.93;69.99;99122.47;4876536;29;20036;-39
2021/12/04 08:28:02;;;;;;;9.23;5.50;;;;;;;8.94;72.31;99127.59;4886194;29;20048;-40
2021/12/04 08:30:34;;;;;;;7.80;5.03;;;;;;;9.02;71.03;99123.88;4895140;29;20107;-40
2021/12/04 08:33:00;;;;;;;7.97;4.95;;;;;;;9.14;69.60;99116.94;4894876;29;20035;-39
2021/12/04 08:35:26;;;;;;;13.20;8.30;;;;;;;8.91;69.32;99092.69;4894386;29;20059;-40
2021/12/04 08:37:53;;;;;;;8.18;4.88;;;;;;;9.11;68.81;99114.69;4895347;29;20043;-39
2021/12/04 08:40:18;;;;;;;8.90;4.82;;;;;;;9.22;68.48;99112.41;4894565;29;20039;-40
2021/12/04 08:42:44;;;;;;;9.20;5.88;;;;;;;9.78;72.44;99111.72;4895105;29;20052;-39
2021/12/04 08:45:11;;;;;;;8.43;5.03;;;;;;;10.11;65.08;99116.00;4894736;29;20032;-39
2021/12/04 08:47:38;;;;;;;6.93;4.45;;;;;;;9.78;66.15;99111.72;4882432;29;20152;-39
2021/12/04 08:50:09;;;;;;;46.47;26.20;;;;;;;9.73;65.79;99116.88;4892060;29;20033;-39
2021/12/04 08:52:35;;;;;;;9.70;5.65;;;;;;;9.54;67.47;99103.47;4894772;29;20032;-39
2021/12/04 08:55:00;;;;;;;7.35;4.43;;;;;;;9.39;66.73;99102.94;4895107;29;20033;-40
2021/12/04 08:57:26;;;;;;;6.90;4.78;;;;;;;9.46;66.46;99103.75;4895276;29;20159;-39
2021/12/04 08:59:52;;;;;;;8.18;4.60;;;;;;;9.58;66.01;99102.03;4862635;29;20033;-40
2021/12/04 09:02:18;;;;;;;6.03;4.32;;;;;;;9.86;64.92;99089.41;4894810;29;20059;-39
2021/12/04 09:04:44;;;;;;;6.47;4.20;;;;;;;9.48;65.73;99072.47;4894865;29;20040;-39
2021/12/04 09:07:10;;;;;;;7.05;4.47;;;;;;;9.56;66.45;99087.34;4895065;29;20028;-42
2021/12/04 09:09:35;;;;;;;6.78;4.20;;;;;;;9.51;66.43;99095.13;4878206;29;20063;-39
2021/12/04 09:12:03;;;;;;;6.60;4.10;;;;;;;9.64;66.78;99087.09;4894751;29;20077;-39
2021/12/04 09:14:31;;;;;;;6.45;4.53;;;;;;;9.57;66.40;99094.25;4877776;29;20109;-40
2021/12/04 09:16:59;;;;;;;7.03;4.00;;;;;;;9.31;67.15;99100.50;4894149;29;20029;-39
2021/12/04 09:19:25;;;;;;;6.82;4.25;;;;;;;9.54;67.12;99100.03;4894708;29;20115;-40
2021/12/04 09:21:51;;;;;;;7.03;3.83;;;;;;;10.00;65.02;99090.94;4894716;29;20560;-39
2021/12/04 09:24:24;;;;;;;5.85;3.80;;;;;;;10.00;65.10;99087.47;4894628;29;20021;-38
2021/12/04 09:29:35;;;;;;;9.15;5.00;;;;;;;9.76;65.32;99082.69;4878282;29;20024;-39
2021/12/04 09:32:31;;;;;;;7.25;4.82;;;;;;;10.21;64.38;99068.50;4894198;29;20120;-39
2021/12/04 09:59:33;;;;;;;8.23;5.47;;;;;;;10.77;62.25;99053.44;4875653;29;20442;-39
2021/12/04 10:18:17;;;;;;;8.13;5.25;;;;;;;11.40;60.33;99019.50;4857953;29;20154;-39
2021/12/04 10:21:07;;;;;;;28.42;17.02;;;;;;;11.52;59.56;99025.69;4872124;29;20036;-41
2021/12/04 10:32:36;;;;;;;8.95;5.22;;;;;;;11.74;57.49;99039.31;4893026;29;20111;-38
2021/12/04 10:35:15;;;;;;;8.88;5.40;;;;;;;11.95;57.55;99038.00;4896026;29;20060;-39
2021/12/04 10:37:46;;;;;;;7.60;5.57;;;;;;;12.18;57.11;99036.41;4896793;29;20033;-39
2021/12/04 10:40:12;;;;;;;13.07;4.93;;;;;;;12.51;56.63;99031.28;4896765;29;20509;-39
2021/12/04 10:42:42;;;;;;;8.18;5.57;;;;;;;12.41;57.32;99035.59;4896681;29;20052;-39
2021/12/04 10:45:09;;;;;;;11.05;6.28;;;;;;;12.73;56.46;99036.03;4896815;29;20100;-39
2021/12/04 10:47:34;;;;;;;13.40;6.95;;;;;;;12.80;57.11;99035.91;4896826;29;20029;-40
2021/12/04 11:03:21;;;;;;;15.52;6.75;;;;;;;12.83;56.39;99038.09;4896383;29;20035;-39
2021/12/04 11:23:04;;;;;;;12.82;6.47;;;;;;;13.06;55.72;99011.34;4896298;29;20024;-39
2021/12/04 11:41:32;;;;;;;11.00;7.80;;;;;;;13.42;58.70;99021.91;4895545;29;20472;-39
2021/12/04 11:44:03;;;;;;;13.40;7.68;;;;;;;13.28;60.15;99016.81;4896478;29;20036;-39
2021/12/04 11:47:08;;;;;;;16.00;8.68;;;;;;;12.97;60.65;99001.28;4894972;29;20489;-39
2021/12/04 11:49:30;;;;;;;12.32;8.07;;;;;;;13.35;59.89;99026.59;4881662;29;20055;-44
2021/12/04 11:51:56;;;;;;;;;;;;;;;13.14;61.03;99025.38;4879617;29;20411;-39
2021/12/04 11:54:27;;;;;;;12.13;7.70;;;;;;;13.06;60.72;99010.50;4895384;29;20001;-39
2021/12/04 11:57:07;;;;;;;11.45;8.40;;;;;;;13.39;60.09;99025.06;4895379;29;20029;-41
2021/12/04 11:59:34;;;;;;;12.90;8.10;;;;;;;13.67;59.34;99029.59;4895731;29;20080;-40
2021/12/04 12:02:00;;;;;;;13.23;8.32;;;;;;;13.50;59.35;99029.56;4896215;29;20064;-39
2021/12/04 12:04:55;;;;;;;15.15;8.25;;;;;;;13.36;59.45;99022.88;4878508;29;20020;-40
2021/12/04 12:07:22;;;;;;;15.25;8.38;;;;;;;13.38;58.93;99024.25;4893293;29;20537;-39
2021/12/04 12:10:00;;;;;;;14.55;8.70;;;;;;;13.48;58.66;99029.00;4878876;29;20025;-39
2021/12/04 12:12:32;;;;;;;12.07;8.15;;;;;;;13.35;59.02;99023.94;4880334;29;20032;-40
2021/12/04 12:15:03;;;;;;;12.25;7.78;;;;;;;13.05;60.38;99024.94;4895864;29;20528;-42
2021/12/04 12:17:35;;;;;;;13.95;8.00;;;;;;;13.27;59.88;99023.22;4879799;29;20052;-39
2021/12/04 12:20:00;;;;;;;13.93;8.55;;;;;;;13.54;58.94;99013.84;4894832;29;20040;-38
2021/12/04 12:25:18;;;;;;;13.40;8.65;;;;;;;13.36;60.07;99026.34;4884746;29;20063;-39
2021/12/04 12:33:28;;;;;;;13.63;8.88;;;;;;;12.80;61.14;99027.91;4885603;29;20108;-39
2021/12/04 12:36:03;;;;;;;12.50;8.18;;;;;;;13.03;60.52;99027.84;4887451;29;20151;-40
2021/12/04 12:38:54;;;;;;;13.85;8.95;;;;;;;13.00;61.22;99030.16;4885050;29;20116;-39
2021/12/04 12:41:23;;;;;;;;;;;;;;;13.00;61.19;99022.16;4890093;29;20378;-38
2021/12/04 12:43:56;;;;;;;14.38;8.77;;;;;;;13.46;60.01;99023.03;4886829;29;19915;-38
2021/12/04 12:46:44;;;;;;;13.77;8.63;;;;;;;13.03;61.09;99030.50;4893996;29;20021;-40
2021/12/04 12:49:37;;;;;;;15.50;8.82;;;;;;;13.15;61.31;99022.44;4894292;29;20186;-39
2021/12/04 12:52:23;;;;;;;16.13;9.30;;;;;;;12.91;60.97;99027.88;4892016;29;20089;-39
2021/12/04 12:54:59;;;;;;;18.63;9.50;;;;;;;12.85;61.57;99026.16;4882838;29;20028;-52
2021/12/04 12:57:32;;;;;;;13.40;9.25;;;;;;;13.03;60.53;99027.03;4886079;29;20047;-50
2021/12/04 13:14:16;;;;;;;18.20;10.10;;;;;;;12.72;63.40;99045.09;4872593;29;20051;-40
2021/12/04 13:16:43;;;;;;;19.17;10.98;;;;;;;12.81;63.00;99054.38;4886446;29;20032;-39
2021/12/04 13:19:12;;;;;;;15.80;10.27;;;;;;;13.14;61.87;99052.91;4869463;29;20466;-40
2021/12/04 13:21:39;;;;;;;16.13;10.07;;;;;;;12.81;62.38;99054.38;4886339;29;20173;-39
2021/12/04 13:24:06;;;;;;;14.50;10.40;;;;;;;12.58;62.14;99057.03;4885206;29;20143;-41
2021/12/04 13:26:35;;;;;;;16.45;10.02;;;;;;;12.64;62.15;99062.28;4868385;29;20397;-40
2021/12/04 13:29:02;;;;;;;14.20;9.57;;;;;;;12.50;62.59;99069.69;4885568;29;20025;-39
2021/12/04 13:31:28;;;;;;;15.23;10.40;;;;;;;12.39;62.99;99057.16;4884505;29;20490;-39
2021/12/04 13:33:54;;;;;;;14.35;9.70;;;;;;;12.39;62.64;99053.69;4885277;29;20036;-39
2021/12/04 13:36:24;;;;;;;13.25;9.20;;;;;;;12.10;63.84;99050.88;4883314;29;20127;-38
2021/12/04 13:39:01;;;;;;;14.52;9.57;;;;;;;11.96;64.43;99058.28;4869570;29;20493;-39
2021/12/04 13:41:28;;;;;;;14.02;8.90;;;;;;;11.78;64.64;99061.00;4891198;29;20080;-41
2021/12/04 13:43:54;;;;;;;20.27;10.52;;;;;;;11.71;65.31;99067.25;4893622;29;20029;-39
2021/12/04 13:46:19;;;;;;;13.77;8.25;;;;;;;11.61;65.32;99066.94;4894254;29;20428;-39
2021/12/04 13:48:45;;;;;;;12.25;8.02;;;;;;;11.21;67.24;99066.69;4893996;29;20381;-39
2021/12/04 13:51:11;;;;;;;12.38;8.30;;;;;;;11.42;66.98;99073.38;4894216;29;20033;-40
2021/12/04 13:53:38;;;;;;;11.95;8.05;;;;;;;11.28;67.03;99073.53;4894109;29;20454;-39
2021/12/04 13:56:08;;;;;;;14.05;7.90;;;;;;;11.25;67.69;99074.00;4894323;29;20486;-39
2021/12/04 13:58:42;;;;;;;15.80;9.10;;;;;;;11.38;66.66;99069.53;4894623;29;20502;-38
2021/12/04 14:01:07;;;;;;;12.88;8.25;;;;;;;11.27;67.19;99077.25;4894682;29;20414;-38
2021/12/04 14:03:33;;;;;;;12.93;8.55;;;;;;;11.22;67.03;99084.28;4894552;29;20029;-39
2021/12/04 14:05:58;;;;;;;15.57;9.50;;;;;;;11.35;67.23;99087.59;4894927;29;20351;-38
2021/12/04 14:08:24;;;;;;;14.93;9.82;;;;;;;11.26;66.63;99090.78;4894608;29;20032;-38
2021/12/04 14:10:49;;;;;;;15.80;8.88;;;;;;;11.26;67.07;99085.47;4898397;29;20040;-39
2021/12/04 14:13:24;;;;;;;14.82;8.65;;;;;;;11.27;66.91;99090.56;4891463;29;20085;-39
2021/12/04 14:15:52;;;;;;;12.30;8.57;;;;;;;11.19;67.26;99084.72;4879818;29;20132;-38
2021/12/04 14:18:19;;;;;;;14.40;8.73;;;;;;;11.13;67.19;99089.09;4879426;29;20053;-38
2021/12/04 14:20:47;;;;;;;14.20;8.55;;;;;;;10.91;68.19;99084.22;4879259;29;20485;-39
2021/12/04 14:23:12;;;;;;;11.77;7.95;;;;;;;11.01;67.91;99088.22;4878840;29;20033;-39
2021/12/04 14:25:53;;;;;;;14.80;8.70;;;;;;;11.08;67.64;99089.78;4879041;29;20445;-39
2021/12/04 14:28:19;;;;;;;120.32;58.72;;;;;;;11.10;67.81;99081.53;4891286;29;20462;-40
2021/12/04 14:30:45;;;;;;;16.60;9.00;;;;;;;10.98;67.78;99086.81;4897871;29;20068;-38
2021/12/04 14:33:14;;;;;;;15.68;8.68;;;;;;;10.94;68.07;99085.63;4897676;29;20506;-38
2021/12/04 14:35:44;;;;;;;13.38;8.82;;;;;;;10.78;69.36;99083.56;4897876;29;20083;-39
2021/12/04 14:38:11;;;;;;;13.45;8.25;;;;;;;10.54;69.68;99086.84;4897577;29;20172;-39
2021/12/04 14:40:40;;;;;;;13.98;8.63;;;;;;;10.73;69.25;99089.53;4889837;29;20033;-38
2021/12/04 14:43:07;;;;;;;14.80;8.50;;;;;;;10.68;68.59;99084.03;4878729;29;20033;-38
2021/12/04 14:45:34;;;;;;;12.65;8.30;;;;;;;10.82;68.35;99085.56;4878393;29;20071;-39
2021/12/04 14:48:03;;;;;;;14.77;8.75;;;;;;;10.79;68.53;99077.19;4861420;29;20113;-39
2021/12/04 14:50:29;;;;;;;;;;;;;;;10.65;68.62;99087.16;4878800;29;20036;-39